LIPYLIRZ

Guest
Details From LIPY - FALCONARA
To LIRZ - PERUGIA
Flight Number -
Tags generated
Created
Modified
Stats Distance 49 nm / 90 km
Max Altitude 0 ft / 0 m
Waypoints 3
Social Downloads 4
Likes 0
Share VATSIM

Download

Looking for another format? Having issues loading an existing format? Contact us
Advertisement - Login to hide

Notes

Basic altitude profile: - Ascent Rate: 2500ft/min - Ascent Speed: 120kts - Cruise Altitude: 3500ft - Cruise Speed: 150kts - Descent Rate: 1500ft/min - Descent Speed: 120kts Options: - Use NATs: yes - Use PACOTS: yes - Use low airways: yes - Use high airways: no

Route

LIPY PRU LIRZ

ID Type Via Altitude Latitude Longitude Leg Dist Tot Dist Heading (true) Name
O LIPY APT - 0 ft / 0 m 43.61635˚ 13.36231˚ - 0 nm - FALCONARA
PRU VOR - 0 ft / 0 m 43.10171˚ 12.51188˚ 48 nm 48 nm 231° / 230° PERUGIA VOR-DME
O LIRZ APT - 0 ft / 0 m 43.09619˚ 12.51332˚ 0 nm 48 nm 169° / 169° PERUGIA

Altitude Profile

Advertisement - Login to hide

LIPY

Details ICAO LIPY (AOI)
Name FALCONARA
Region Italy
Timezone Europe/Rome (UTC+1.0)
Stats Elevation 49 ft / 15 m (AMSL)
Location 43.616351° 13.362310°
Runways 1
Magnetic Variation 3.293° E

METAR

LIPY 110150Z 19010KT 9999 BKN045 15/08 Q1004

Decode

TAF

TAF LIPY 102300Z 1100/1124 20016G28KT 9999 SCT030

Decode

Departure Runways

ID Width Length Bearing (true) Bearing (mag) Surface Threshold Offset Overrun Length
04 148 ft / 45 m 9,711 ft / 2,960 m 44.81° 41.52° Asphalt 641 ft / 195 m 0 ft / 0 m
22 148 ft / 45 m 9,711 ft / 2,960 m 224.83° 221.54° Asphalt 492 ft / 150 m 0 ft / 0 m

LIRZ

Details ICAO LIRZ (PEG)
Name PERUGIA
Region Italy
Timezone Europe/Rome (UTC+1.0)
Stats Elevation 693 ft / 211 m (AMSL)
Location 43.096192° 12.513325°
Runways 1
Magnetic Variation 3.103° E

METAR

Not found

TAF

TAF TAF LIRZ 101700Z 1018/1118 22020G30KT 9999 SCT030

Decode

Destination Runways

ID Width Length Bearing (true) Bearing (mag) Surface Threshold Offset Overrun Length
01 154 ft / 47 m 5,783 ft / 1,763 m 14.26° 11.16° Asphalt 0 ft / 0 m 328 ft / 100 m
19 154 ft / 47 m 5,783 ft / 1,763 m 194.27° 191.17° Asphalt 85 ft / 26 m 0 ft / 0 m

Approach Navaids

Runway Type Ident Frequency Range Bearing (true) Bearing (mag) Slope Elevation
01 Localiser IPE 110.95 MHz 18 nm / 33 km 14.25° 11.15° - 693 ft / 211 m (AMSL)
01 Glidescope IPE 110.95 MHz 10 nm / 19 km 14.26° 11.16° 3.40° 667 ft / 203 m (AMSL)
01 DME IPE 110.95 MHz 18 nm / 33 km - - - 667 ft / 203 m (AMSL)

Popular Alternatives